Startpagina
METAR-TAF:

METAR-TAF

Vliegvelden :

Aeropuerto Internacional Rodríguez Ballón

Arequipa, Peru

breedte: 16-19S, lengte: 071-33W, hoogte: 2538 m

Actueel weer

Dit bericht is 56 minuten geleden gemaakt, om 03:00 UTC
Wind 3 kt uit het oostzuidoosten
Temperatuur 13°C
Vochtigheid 67%
Druk 1027 hPa
Zicht 10 km of meer
geen wolken onder 1500 m en geen cumulonimbus

METAR: SPQU 110300Z 12003KT CAVOK 13/07 Q1027 RMK PP000

Tijdstip: 22:56 (03:56 UTC)

Verwachting

Dit bericht is 4 uur en het 56 minuten geleden gemaakt, om 23:00 UTC
Verwachting geldig van 11 om 00 UTC tot 11 om 24 UTC
Wind 5 kt uit het noordoosten
Zicht 10 km of meer
geen wolken onder 1500 m en geen cumulonimbus
Wijzigt naar
van 11 om 14 UTC tot 11 om 16 UTC
Wind 10 kt uit het westzuidwesten

TAF: SPQU 102300Z 1100/1124 05005KT CAVOK TX21/1117Z TN08/1110Z BECMG 1114/1116 25010KT

Waarnemingen en weersverwachtingen van meer dan 4000 vliegvelden (METAR en TAF).

De beschikbare stations zijn de gele en rode punten op de kaart.

Ga met uw muis naar het station om de naam te zien.

Klik dan om waarnemingen en weersverwachtingen te zien.

kaart wijzigen: klik op de groene knoppen met een zwart kruis om in te zoomen, op de groene knop met een streepje om uit te zoomen of op de groene pijlen voor aangrenzende kaarten.


METAR-TAF: